Time;durP1;ratioP1;P1;durP2;ratioP2;P2;SDS_P1;SDS_P2;PMS_P1;PMS_P2;Temp;Humidity;BMP_temperature;BMP_pressure;BME280_temperature;BME280_humidity;BME280_pressure;Samples;Min_cycle;Max_cycle;Signal;HPM_P1;HPM_P2
2023/08/19 00:01:24;;;;;;;4.35;1.17;;;12.80;54.20;;;;;;6189736;23;20004;-77
2023/08/19 00:03:52;;;;;;;10.35;1.10;;;12.90;54.40;;;;;;6241469;23;20095;-75
2023/08/19 00:06:36;;;;;;;2.58;1.13;;;12.90;54.10;;;;;;6214089;23;20075;-80
2023/08/19 00:09:04;;;;;;;1.75;0.90;;;13.00;52.70;;;;;;6208732;23;20024;-80
2023/08/19 00:11:32;;;;;;;5.05;1.00;;;13.00;53.00;;;;;;6183695;23;20001;-82
2023/08/19 00:13:59;;;;;;;3.67;1.17;;;13.00;52.80;;;;;;6185340;23;20008;-80
2023/08/19 00:16:26;;;;;;;2.70;0.90;;;13.10;52.60;;;;;;6210245;23;20095;-82
2023/08/19 00:18:54;;;;;;;2.55;1.00;;;13.20;52.80;;;;;;6209706;23;20028;-80
2023/08/19 00:21:21;;;;;;;2.90;0.65;;;13.20;53.10;;;;;;6185592;23;20425;-79
2023/08/19 00:23:48;;;;;;;1.48;0.68;;;13.30;52.60;;;;;;6185562;23;20007;-81
2023/08/19 00:26:15;;;;;;;4.80;1.10;;;13.30;51.70;;;;;;6184152;23;20340;-80
2023/08/19 00:28:42;;;;;;;2.95;1.05;;;13.30;51.10;;;;;;6211015;23;20055;-79
2023/08/19 00:31:10;;;;;;;3.22;1.00;;;13.40;51.20;;;;;;6211117;23;20084;-76
2023/08/19 00:33:37;;;;;;;3.88;0.90;;;13.40;51.50;;;;;;6208416;23;20317;-76
2023/08/19 00:36:04;;;;;;;5.50;1.20;;;13.50;50.90;;;;;;6209390;23;20070;-76
2023/08/19 00:38:31;;;;;;;2.50;0.80;;;13.50;51.00;;;;;;6209557;23;20028;-75
2023/08/19 00:40:59;;;;;;;5.95;0.98;;;13.50;50.70;;;;;;6184416;23;20008;-69
2023/08/19 00:43:26;;;;;;;2.58;1.10;;;13.50;51.10;;;;;;6184341;23;20063;-70
2023/08/19 00:45:53;;;;;;;5.68;1.00;;;13.70;50.60;;;;;;6214019;23;20368;-70
2023/08/19 00:48:21;;;;;;;8.57;1.13;;;13.70;50.60;;;;;;6187327;23;20000;-70
2023/08/19 00:50:48;;;;;;;2.38;0.88;;;13.80;50.30;;;;;;6214044;23;20431;-70
2023/08/19 00:53:16;;;;;;;3.42;1.15;;;13.90;50.80;;;;;;6187390;23;20390;-70
2023/08/19 00:55:43;;;;;;;4.10;1.40;;;13.90;50.70;;;;;;6212981;23;20079;-76
2023/08/19 00:58:10;;;;;;;5.20;1.27;;;13.90;50.60;;;;;;6209707;23;20004;-81
2023/08/19 01:00:37;;;;;;;5.38;1.55;;;13.90;50.20;;;;;;6185112;23;20004;-80
2023/08/19 01:03:06;;;;;;;3.30;1.33;;;13.90;50.40;;;;;;6184749;23;20092;-81
2023/08/19 01:05:47;;;;;;;3.40;1.13;;;14.00;49.80;;;;;;6211146;23;20016;-80
2023/08/19 01:08:17;;;;;;;3.97;1.38;;;14.00;50.00;;;;;;6216474;23;20016;-80
2023/08/19 01:10:44;;;;;;;1.67;0.82;;;14.00;50.80;;;;;;6215048;23;20016;-80
2023/08/19 01:13:15;;;;;;;2.85;1.00;;;14.10;50.50;;;;;;6241152;23;20000;-79
2023/08/19 01:16:03;;;;;;;3.08;1.15;;;14.10;49.20;;;;;;6214764;23;20126;-79
2023/08/19 01:18:30;;;;;;;3.63;0.93;;;14.10;49.70;;;;;;6214555;23;20336;-78
2023/08/19 01:20:57;;;;;;;3.10;0.80;;;14.10;49.80;;;;;;6214453;23;20015;-78
2023/08/19 01:23:32;;;;;;;4.22;1.17;;;14.20;50.20;;;;;;6241947;23;20004;-75
2023/08/19 01:26:00;;;;;;;3.60;1.00;;;14.20;49.90;;;;;;6190688;23;20004;-84
2023/08/19 01:28:27;;;;;;;2.80;0.85;;;14.30;49.30;;;;;;6214755;23;20028;-83
2023/08/19 01:30:54;;;;;;;3.75;0.90;;;14.30;49.30;;;;;;6240776;23;20004;-83
2023/08/19 01:33:21;;;;;;;5.05;1.20;;;14.30;49.00;;;;;;6214348;23;20004;-78
2023/08/19 01:36:16;;;;;;;1.30;0.98;;;14.30;49.10;;;;;;6214732;23;20023;-81
2023/08/19 01:38:45;;;;;;;3.15;1.08;;;14.40;49.30;;;;;;6214223;23;20439;-79
2023/08/19 01:41:13;;;;;;;2.88;1.38;;;14.40;48.30;;;;;;6215028;23;20043;-81
2023/08/19 01:43:40;;;;;;;4.15;1.15;;;14.50;48.30;;;;;;6190489;23;20024;-82
2023/08/19 01:46:07;;;;;;;2.53;0.93;;;14.60;48.60;;;;;;6212131;23;20267;-82
2023/08/19 01:48:34;;;;;;;3.90;1.10;;;14.60;47.90;;;;;;6189426;23;20008;-81
2023/08/19 01:51:01;;;;;;;1.95;0.73;;;14.70;47.90;;;;;;6241168;23;20000;-80
2023/08/19 01:53:29;;;;;;;2.60;1.00;;;14.70;47.80;;;;;;6215139;23;20012;-80
2023/08/19 01:55:56;;;;;;;1.30;0.90;;;14.70;47.60;;;;;;6213427;23;20008;-80
2023/08/19 01:58:23;;;;;;;2.03;0.82;;;14.70;48.10;;;;;;6240757;23;20015;-80
2023/08/19 02:00:51;;;;;;;2.95;0.90;;;14.70;47.70;;;;;;6241859;23;20000;-81
2023/08/19 02:03:18;;;;;;;3.90;1.00;;;14.70;47.80;;;;;;6215924;23;20330;-80
2023/08/19 02:05:45;;;;;;;1.48;0.70;;;14.70;48.00;;;;;;6242436;23;20020;-82
2023/08/19 02:08:12;;;;;;;5.05;1.20;;;14.80;48.20;;;;;;6244163;23;20394;-81
2023/08/19 02:10:42;;;;;;;3.47;0.80;;;14.80;47.80;;;;;;6245251;23;20004;-82
2023/08/19 02:13:10;;;;;;;3.47;1.00;;;14.80;48.10;;;;;;6246350;23;20000;-81
2023/08/19 02:15:37;;;;;;;2.08;0.80;;;14.80;48.00;;;;;;6219159;23;20446;-81
2023/08/19 02:18:04;;;;;;;2.53;0.85;;;14.90;47.70;;;;;;6219315;23;20012;-82
2023/08/19 02:20:32;;;;;;;3.30;0.85;;;15.00;47.70;;;;;;6243422;23;20004;-82
2023/08/19 02:23:00;;;;;;;2.80;1.00;;;15.00;47.70;;;;;;6245352;23;20011;-85
2023/08/19 02:25:27;;;;;;;2.53;0.95;;;15.00;47.40;;;;;;6218422;23;20364;-80
2023/08/19 02:27:55;;;;;;;10.90;7.05;;;15.00;49.00;;;;;;6245855;23;20011;-79
2023/08/19 02:30:22;;;;;;;6.93;2.42;;;15.00;49.00;;;;;;6245167;23;20058;-78
2023/08/19 02:32:49;;;;;;;2.67;1.10;;;15.10;49.50;;;;;;6219116;23;20012;-78
2023/08/19 02:35:17;;;;;;;3.45;1.60;;;15.20;48.60;;;;;;6245813;23;20015;-78
2023/08/19 02:37:45;;;;;;;4.15;1.05;;;15.20;48.40;;;;;;6246154;23;20068;-79
2023/08/19 02:40:12;;;;;;;2.67;0.70;;;15.20;48.10;;;;;;6219124;23;20854;-80
2023/08/19 02:42:39;;;;;;;3.70;1.50;;;15.10;48.40;;;;;;6219784;23;20028;-79
2023/08/19 02:45:07;;;;;;;4.75;0.95;;;15.20;48.60;;;;;;6219264;23;20011;-81
2023/08/19 02:47:34;;;;;;;4.53;1.13;;;15.30;49.40;;;;;;6246057;23;20000;-80
2023/08/19 02:50:01;;;;;;;1.88;0.75;;;15.30;49.30;;;;;;6245751;23;19996;-80
2023/08/19 02:52:28;;;;;;;2.35;1.02;;;15.30;48.60;;;;;;6245785;23;20087;-79
2023/08/19 02:54:55;;;;;;;6.63;1.05;;;15.30;48.40;;;;;;6245801;23;20296;-80
2023/08/19 02:57:22;;;;;;;3.00;1.00;;;15.30;48.50;;;;;;6219101;23;20066;-80
2023/08/19 02:59:49;;;;;;;4.05;1.02;;;15.40;49.20;;;;;;6246315;23;20330;-80
2023/08/19 03:02:17;;;;;;;3.90;1.00;;;15.40;49.70;;;;;;6246009;23;20007;-80
2023/08/19 03:04:44;;;;;;;2.33;1.00;;;15.30;49.60;;;;;;6219088;23;20011;-80
2023/08/19 03:07:11;;;;;;;2.47;0.90;;;15.40;50.40;;;;;;6245615;23;20043;-80
2023/08/19 03:09:38;;;;;;;3.47;0.80;;;15.50;50.00;;;;;;6244588;23;20343;-80
2023/08/19 03:12:06;;;;;;;1.67;0.80;;;15.50;50.30;;;;;;6218432;23;20082;-80
2023/08/19 03:14:33;;;;;;;1.40;0.70;;;15.50;49.60;;;;;;6218827;23;20063;-80
2023/08/19 03:17:00;;;;;;;1.83;0.70;;;15.50;49.70;;;;;;6219474;23;20327;-80
2023/08/19 03:19:27;;;;;;;2.58;0.70;;;15.50;49.80;;;;;;6245723;23;20058;-80
2023/08/19 03:21:54;;;;;;;2.72;0.88;;;15.60;49.70;;;;;;6245904;23;20000;-80
2023/08/19 03:24:22;;;;;;;3.10;0.90;;;15.70;49.50;;;;;;6245811;23;20308;-81
2023/08/19 03:26:49;;;;;;;1.50;0.90;;;15.60;49.80;;;;;;6218974;23;20007;-80
2023/08/19 03:29:16;;;;;;;1.88;0.77;;;15.70;49.20;;;;;;6245558;23;20543;-80
2023/08/19 03:31:43;;;;;;;2.03;0.68;;;15.60;50.30;;;;;;6218956;23;20359;-80
2023/08/19 03:34:10;;;;;;;3.80;1.10;;;15.60;49.40;;;;;;6245315;23;20003;-81
2023/08/19 03:36:37;;;;;;;1.40;0.60;;;15.70;49.50;;;;;;6245200;23;20015;-81
2023/08/19 03:39:05;;;;;;;4.57;0.95;;;15.70;49.60;;;;;;6245413;23;20028;-79
2023/08/19 03:41:32;;;;;;;5.18;1.35;;;15.70;49.30;;;;;;6218817;23;20419;-79
2023/08/19 03:43:59;;;;;;;3.97;0.90;;;15.70;49.00;;;;;;6245397;23;20000;-80
2023/08/19 03:46:26;;;;;;;1.92;0.85;;;15.70;50.10;;;;;;6243569;23;20000;-79
2023/08/19 03:48:53;;;;;;;4.72;1.20;;;15.70;50.20;;;;;;6218692;23;20004;-79
2023/08/19 03:51:20;;;;;;;3.20;1.10;;;15.70;50.70;;;;;;6245056;23;19996;-80
2023/08/19 03:53:48;;;;;;;2.83;0.95;;;15.70;50.20;;;;;;6245862;23;20446;-79
2023/08/19 03:56:15;;;;;;;3.40;0.95;;;15.70;50.90;;;;;;6245339;23;20079;-79
2023/08/19 03:58:43;;;;;;;1.80;0.70;;;15.70;51.40;;;;;;6218943;23;20003;-78
2023/08/19 04:01:10;;;;;;;1.75;0.80;;;15.70;50.80;;;;;;6245384;23;20000;-79
2023/08/19 04:03:37;;;;;;;2.50;0.90;;;15.70;50.40;;;;;;6218956;23;20028;-80
2023/08/19 04:06:05;;;;;;;2.15;1.00;;;15.70;50.90;;;;;;6243292;23;20011;-80
2023/08/19 04:08:32;;;;;;;1.55;0.68;;;15.70;50.80;;;;;;6189381;23;20016;-82
2023/08/19 04:11:08;;;;;;;2.97;1.25;;;15.70;51.30;;;;;;6240683;23;20012;-83
2023/08/19 04:13:35;;;;;;;2.42;1.00;;;15.70;51.00;;;;;;6214441;23;20300;-78
2023/08/19 04:16:06;;;;;;;3.17;1.15;;;15.80;51.00;;;;;;6241575;23;20027;-79
2023/08/19 04:18:34;;;;;;;2.85;0.88;;;15.80;51.50;;;;;;6214689;23;20011;-77
2023/08/19 04:21:09;;;;;;;0.70;0.70;;;15.90;52.10;;;;;;6241701;23;20011;-79
2023/08/19 04:23:36;;;;;;;2.10;0.80;;;16.00;51.00;;;;;;6240462;23;20004;-81
2023/08/19 04:26:03;;;;;;;2.30;0.90;;;16.00;50.70;;;;;;6214711;23;20450;-78
2023/08/19 04:28:30;;;;;;;1.83;0.70;;;16.10;50.50;;;;;;6241317;23;20004;-79
2023/08/19 04:31:08;;;;;;;2.28;0.90;;;16.10;50.90;;;;;;6240582;23;20074;-78
2023/08/19 04:33:36;;;;;;;3.17;1.00;;;16.10;50.30;;;;;;6241307;23;20000;-76
2023/08/19 04:36:03;;;;;;;4.22;0.80;;;16.00;51.60;;;;;;6240672;23;20023;-80
2023/08/19 04:38:31;;;;;;;1.40;0.70;;;16.00;51.30;;;;;;6240932;23;20079;-80
2023/08/19 04:41:01;;;;;;;2.10;0.88;;;16.00;51.30;;;;;;6241106;23;20055;-81
2023/08/19 04:43:28;;;;;;;1.65;0.82;;;16.00;51.20;;;;;;6214853;23;20010;-78
2023/08/19 04:45:55;;;;;;;1.85;0.80;;;16.00;52.20;;;;;;6240296;23;20007;-79
2023/08/19 04:48:23;;;;;;;4.68;0.70;;;16.00;53.20;;;;;;6214742;23;20005;-77
2023/08/19 04:50:50;;;;;;;1.92;0.77;;;16.00;51.80;;;;;;6190316;23;20084;-77
2023/08/19 04:53:17;;;;;;;1.42;0.50;;;16.00;51.50;;;;;;6241632;23;20007;-79
2023/08/19 04:55:44;;;;;;;2.08;0.85;;;16.00;51.80;;;;;;6214888;23;20009;-79
2023/08/19 04:58:12;;;;;;;4.90;1.10;;;16.10;51.50;;;;;;6241735;23;20012;-79
2023/08/19 05:00:39;;;;;;;0.43;0.40;;;16.10;51.40;;;;;;6214483;23;20147;-82
2023/08/19 05:03:06;;;;;;;2.40;0.80;;;16.20;51.40;;;;;;6214818;23;20451;-79
2023/08/19 05:05:33;;;;;;;2.85;0.65;;;16.20;51.40;;;;;;6241245;23;20011;-80
2023/08/19 05:08:00;;;;;;;3.45;0.75;;;16.20;51.60;;;;;;6214364;23;20107;-77
2023/08/19 05:10:27;;;;;;;1.60;0.50;;;16.20;51.30;;;;;;6240877;23;20019;-81
2023/08/19 05:12:54;;;;;;;1.35;0.80;;;16.20;51.50;;;;;;6239718;23;20499;-79
2023/08/19 05:15:22;;;;;;;2.10;1.00;;;16.30;51.50;;;;;;6214866;23;20046;-81
2023/08/19 05:17:49;;;;;;;2.15;0.80;;;16.30;51.40;;;;;;6214780;23;19996;-81
2023/08/19 05:20:16;;;;;;;2.03;0.85;;;16.30;51.30;;;;;;6241160;23;20004;-81
2023/08/19 05:22:43;;;;;;;3.40;1.08;;;16.30;51.40;;;;;;6213269;23;20000;-80
2023/08/19 05:25:10;;;;;;;1.02;0.70;;;16.40;51.20;;;;;;6240967;23;20308;-82
2023/08/19 05:27:37;;;;;;;2.45;0.90;;;16.40;51.30;;;;;;6214679;23;20004;-81
2023/08/19 05:30:07;;;;;;;1.63;1.00;;;16.40;51.40;;;;;;6189378;23;20335;-79
2023/08/19 05:32:37;;;;;;;1.65;0.90;;;16.40;52.20;;;;;;6240739;23;20004;-79
2023/08/19 05:35:05;;;;;;;5.18;1.30;;;16.40;51.60;;;;;;6189951;23;20086;-80
2023/08/19 05:37:32;;;;;;;1.20;0.98;;;16.40;51.60;;;;;;6216335;23;20490;-80
2023/08/19 05:40:01;;;;;;;2.90;1.10;;;16.40;52.00;;;;;;6243237;23;20008;-81
2023/08/19 05:42:28;;;;;;;5.90;1.20;;;16.30;51.90;;;;;;6243380;23;20357;-78
2023/08/19 05:44:55;;;;;;;2.30;1.20;;;16.30;51.80;;;;;;6240299;23;20008;-79
2023/08/19 05:47:22;;;;;;;2.88;1.20;;;16.30;52.10;;;;;;6242769;23;20126;-78
2023/08/19 05:49:49;;;;;;;1.98;1.23;;;16.20;52.20;;;;;;6242710;23;20343;-78
2023/08/19 05:52:16;;;;;;;2.03;1.30;;;16.30;52.40;;;;;;6242909;23;20003;-78
2023/08/19 05:54:44;;;;;;;1.58;1.20;;;16.20;52.50;;;;;;6216129;23;20087;-78
2023/08/19 05:57:11;;;;;;;5.35;1.40;;;16.20;52.60;;;;;;6216318;23;20019;-78
2023/08/19 05:59:38;;;;;;;2.55;1.10;;;16.20;53.20;;;;;;6216310;23;19996;-77
2023/08/19 06:02:06;;;;;;;1.73;1.10;;;16.20;52.90;;;;;;6243070;23;20039;-78
2023/08/19 06:04:33;;;;;;;2.63;1.00;;;16.20;52.80;;;;;;6216429;23;20004;-77
2023/08/19 06:07:00;;;;;;;2.53;1.23;;;16.20;53.20;;;;;;6242920;23;20075;-76
2023/08/19 06:09:27;;;;;;;2.13;1.20;;;16.20;53.30;;;;;;6243065;23;20016;-75
2023/08/19 06:11:54;;;;;;;3.35;1.10;;;16.20;53.00;;;;;;6216255;23;20466;-77
2023/08/19 06:14:22;;;;;;;3.55;1.05;;;16.10;53.50;;;;;;6243255;23;20489;-78
2023/08/19 06:16:49;;;;;;;2.33;1.23;;;16.10;53.60;;;;;;6243359;23;20296;-79
2023/08/19 06:19:16;;;;;;;3.53;1.10;;;16.10;53.90;;;;;;6242899;23;20000;-80
2023/08/19 06:21:43;;;;;;;1.27;0.85;;;16.10;53.70;;;;;;6243199;23;20000;-81
2023/08/19 06:24:10;;;;;;;3.13;1.00;;;16.20;53.80;;;;;;6216114;23;20823;-77
2023/08/19 06:26:37;;;;;;;1.40;0.85;;;16.20;53.70;;;;;;6242841;23;20007;-80
2023/08/19 06:29:05;;;;;;;1.60;0.85;;;16.10;53.80;;;;;;6242638;23;20011;-77
2023/08/19 06:31:32;;;;;;;1.00;0.85;;;16.10;53.70;;;;;;6242884;23;20004;-78
2023/08/19 06:34:00;;;;;;;1.27;0.90;;;16.10;54.10;;;;;;6191460;23;20392;-76
2023/08/19 06:36:30;;;;;;;1.35;0.90;;;16.00;54.00;;;;;;6243011;23;20052;-78
2023/08/19 06:39:15;;;;;;;1.88;1.10;;;16.00;53.90;;;;;;6242769;23;20000;-78
2023/08/19 06:41:42;;;;;;;4.28;1.10;;;16.00;53.80;;;;;;6192385;23;20027;-78
2023/08/19 06:44:09;;;;;;;1.65;0.77;;;16.10;53.90;;;;;;6213718;23;20008;-79
2023/08/19 06:46:37;;;;;;;2.05;0.95;;;16.00;54.00;;;;;;6215779;23;20431;-79
2023/08/19 06:49:04;;;;;;;1.30;0.70;;;16.00;53.80;;;;;;6241411;23;20020;-79
2023/08/19 06:51:32;;;;;;;2.80;0.70;;;16.00;54.40;;;;;;6216272;23;20078;-78
2023/08/19 06:53:59;;;;;;;2.15;0.82;;;15.90;54.20;;;;;;6239822;23;20008;-78
2023/08/19 06:56:33;;;;;;;0.77;0.55;;;15.90;54.30;;;;;;6242487;23;20023;-79
2023/08/19 06:59:18;;;;;;;1.20;0.60;;;15.90;54.10;;;;;;6214389;23;20000;-78
2023/08/19 07:01:48;;;;;;;0.95;0.57;;;15.80;54.40;;;;;;6192553;23;20000;-76
2023/08/19 07:04:15;;;;;;;1.27;0.70;;;15.80;54.50;;;;;;6190304;23;19996;-77
2023/08/19 07:06:42;;;;;;;2.22;0.70;;;15.70;54.50;;;;;;6188336;23;20751;-76
2023/08/19 07:09:11;;;;;;;1.67;0.80;;;15.70;55.10;;;;;;6214380;23;20024;-79
2023/08/19 07:11:38;;;;;;;0.60;0.57;;;15.70;55.30;;;;;;6191167;23;20462;-81
2023/08/19 07:14:06;;;;;;;1.65;0.50;;;15.60;55.30;;;;;;6215396;23;20022;-78
2023/08/19 07:16:36;;;;;;;2.63;0.60;;;15.50;55.30;;;;;;6215039;23;20355;-80
2023/08/19 07:19:05;;;;;;;1.13;0.63;;;15.60;55.30;;;;;;6187599;23;20030;-76
2023/08/19 07:21:36;;;;;;;0.57;0.45;;;15.50;55.60;;;;;;6213703;23;20075;-76
2023/08/19 07:24:03;;;;;;;1.48;0.70;;;15.50;55.80;;;;;;6241900;23;20008;-75
2023/08/19 07:26:31;;;;;;;0.98;0.52;;;15.40;56.10;;;;;;6215920;23;20022;-76
2023/08/19 07:28:59;;;;;;;1.55;0.63;;;15.40;56.40;;;;;;6215309;23;20016;-76
2023/08/19 07:31:26;;;;;;;0.68;0.50;;;15.30;56.60;;;;;;6240706;23;20004;-76
2023/08/19 07:33:54;;;;;;;1.55;0.60;;;15.30;56.90;;;;;;6242090;23;20485;-76
2023/08/19 07:36:22;;;;;;;6.10;0.77;;;15.30;57.30;;;;;;6241601;23;20572;-77
2023/08/19 07:38:49;;;;;;;1.00;0.60;;;15.20;57.20;;;;;;6213096;23;20000;-76
2023/08/19 07:41:19;;;;;;;1.40;0.65;;;15.20;57.20;;;;;;6212674;23;20043;-82
2023/08/19 07:43:47;;;;;;;2.08;1.00;;;15.20;57.20;;;;;;6215722;23;20150;-79
2023/08/19 07:46:18;;;;;;;1.20;0.68;;;15.20;57.20;;;;;;6210857;23;20537;-79
2023/08/19 07:48:45;;;;;;;3.03;0.70;;;15.20;57.50;;;;;;6191686;23;20004;-77
2023/08/19 07:51:13;;;;;;;0.93;0.75;;;15.10;57.70;;;;;;6214359;23;20115;-78
2023/08/19 07:53:40;;;;;;;1.17;0.70;;;15.00;57.80;;;;;;6214595;23;20008;-78
2023/08/19 07:56:07;;;;;;;0.68;0.68;;;15.00;58.10;;;;;;6240907;23;20028;-76
2023/08/19 07:58:36;;;;;;;1.40;0.63;;;15.00;57.90;;;;;;6241798;23;20000;-76
2023/08/19 08:01:03;;;;;;;2.13;0.80;;;15.00;58.10;;;;;;6240342;23;20008;-75
2023/08/19 08:03:32;;;;;;;3.65;0.85;;;15.00;58.10;;;;;;6240737;23;20058;-75
2023/08/19 08:05:59;;;;;;;1.33;0.60;;;15.00;58.30;;;;;;6241367;23;20012;-76
2023/08/19 08:08:26;;;;;;;1.05;0.70;;;14.90;58.40;;;;;;6240818;23;20066;-75
2023/08/19 08:10:53;;;;;;;0.52;0.50;;;14.90;58.50;;;;;;6215080;23;20114;-76
2023/08/19 08:13:21;;;;;;;1.25;0.75;;;14.90;58.60;;;;;;6214782;23;20331;-75
2023/08/19 08:15:48;;;;;;;1.50;0.85;;;14.90;58.70;;;;;;6215242;23;20012;-75
2023/08/19 08:18:15;;;;;;;1.48;0.70;;;14.80;58.90;;;;;;6215033;23;20331;-72
2023/08/19 08:20:43;;;;;;;0.57;0.57;;;14.80;59.10;;;;;;6240906;23;20498;-77
2023/08/19 08:23:11;;;;;;;1.98;1.02;;;14.80;59.10;;;;;;6241906;23;20012;-76
2023/08/19 08:25:38;;;;;;;0.88;0.80;;;14.80;58.90;;;;;;6241462;23;20008;-79
2023/08/19 08:28:06;;;;;;;1.25;0.90;;;14.80;59.10;;;;;;6241529;23;20054;-78
2023/08/19 08:30:34;;;;;;;1.13;0.70;;;14.80;59.20;;;;;;6215465;23;20055;-80
2023/08/19 08:33:01;;;;;;;1.00;0.90;;;14.80;59.40;;;;;;6239534;23;20013;-79
2023/08/19 08:35:28;;;;;;;1.33;0.93;;;14.70;59.50;;;;;;6189396;23;20008;-76
2023/08/19 08:37:55;;;;;;;1.13;0.85;;;14.70;59.60;;;;;;6214719;23;20011;-77
2023/08/19 08:40:22;;;;;;;1.13;0.90;;;14.70;59.60;;;;;;6214933;23;20384;-80
2023/08/19 08:42:49;;;;;;;1.15;0.98;;;14.70;59.90;;;;;;6240914;23;20423;-79
2023/08/19 08:45:17;;;;;;;2.60;0.93;;;14.70;60.00;;;;;;6186909;23;20131;-77
2023/08/19 08:47:44;;;;;;;1.52;0.90;;;14.70;60.20;;;;;;6189726;23;20008;-76
2023/08/19 08:50:11;;;;;;;1.00;0.90;;;14.70;60.20;;;;;;6241534;23;20082;-84
2023/08/19 08:52:40;;;;;;;2.92;0.82;;;14.60;60.20;;;;;;6189688;23;20008;-75
2023/08/19 08:55:07;;;;;;;1.98;1.00;;;14.60;60.30;;;;;;6190624;23;20383;-82
2023/08/19 08:57:34;;;;;;;1.75;1.10;;;14.60;60.50;;;;;;6214655;23;20000;-82
2023/08/19 09:00:03;;;;;;;1.13;1.00;;;14.60;60.70;;;;;;6215143;23;20011;-79
2023/08/19 09:02:30;;;;;;;1.50;1.08;;;14.50;60.80;;;;;;6215175;23;20003;-79
2023/08/19 09:04:57;;;;;;;1.90;1.08;;;14.60;61.00;;;;;;6213580;23;20317;-84
2023/08/19 09:07:31;;;;;;;1.42;1.10;;;14.50;61.20;;;;;;6214503;23;20000;-82
2023/08/19 09:09:59;;;;;;;1.50;1.20;;;14.50;61.10;;;;;;6215851;23;20453;-82
2023/08/19 09:12:26;;;;;;;2.40;1.23;;;14.50;61.30;;;;;;6241486;23;20462;-83
2023/08/19 09:15:02;;;;;;;2.03;1.15;;;14.50;61.30;;;;;;6240851;23;20087;-86
2023/08/19 09:17:29;;;;;;;1.33;1.20;;;14.50;61.50;;;;;;6214319;23;20102;-79
2023/08/19 09:19:57;;;;;;;1.85;1.10;;;14.50;61.30;;;;;;6214951;23;20050;-79
2023/08/19 09:22:24;;;;;;;1.42;1.13;;;14.40;61.60;;;;;;6188634;23;20039;-84
2023/08/19 09:24:54;;;;;;;1.63;0.98;;;14.40;61.80;;;;;;6214678;23;20031;-82
2023/08/19 09:27:30;;;;;;;1.40;1.10;;;14.40;62.00;;;;;;6189968;23;20008;-80
2023/08/19 09:29:57;;;;;;;2.28;1.02;;;14.30;61.90;;;;;;6214030;23;20000;-81
2023/08/19 09:32:29;;;;;;;1.35;0.82;;;14.30;62.20;;;;;;6189227;23;20326;-79
2023/08/19 09:35:07;;;;;;;2.05;1.20;;;14.30;62.20;;;;;;6214586;23;20008;-76
2023/08/19 09:37:35;;;;;;;1.17;0.70;;;14.30;62.40;;;;;;6215146;23;20012;-79
2023/08/19 09:40:15;;;;;;;2.53;0.98;;;14.30;62.50;;;;;;6241528;23;20035;-80
2023/08/19 09:42:47;;;;;;;1.42;1.10;;;14.20;62.60;;;;;;6240579;23;20494;-77
2023/08/19 09:45:18;;;;;;;1.23;0.90;;;14.20;62.70;;;;;;6235869;23;20083;-78
2023/08/19 09:47:54;;;;;;;2.00;1.23;;;14.20;62.90;;;;;;6214919;23;20431;-84
2023/08/19 09:50:22;;;;;;;1.73;1.08;;;14.20;63.10;;;;;;6240960;23;20007;-82
2023/08/19 09:52:54;;;;;;;1.20;1.10;;;14.20;63.30;;;;;;6213990;23;20040;-80
2023/08/19 09:55:25;;;;;;;2.10;1.20;;;14.20;63.20;;;;;;6214731;23;20056;-80
2023/08/19 09:57:53;;;;;;;3.13;1.20;;;14.10;63.40;;;;;;6241733;23;20491;-80
2023/08/19 10:00:20;;;;;;;2.17;1.20;;;14.10;63.60;;;;;;6214801;23;20012;-75
2023/08/19 10:02:47;;;;;;;3.33;1.52;;;14.10;63.70;;;;;;6213874;23;20324;-77
2023/08/19 10:05:16;;;;;;;3.15;1.48;;;14.10;64.00;;;;;;6239993;23;20004;-76
2023/08/19 10:08:01;;;;;;;6.15;1.60;;;14.10;64.20;;;;;;6189209;23;20004;-77
2023/08/19 10:10:30;;;;;;;4.13;1.70;;;14.00;64.40;;;;;;6217134;23;20014;-80
2023/08/19 10:12:57;;;;;;;3.95;1.50;;;14.00;64.50;;;;;;6241733;23;20039;-77
2023/08/19 10:15:27;;;;;;;4.45;1.75;;;14.00;64.50;;;;;;6240891;23;20070;-78
2023/08/19 10:17:57;;;;;;;2.45;1.52;;;14.00;64.60;;;;;;6240494;23;20105;-77
2023/08/19 10:20:26;;;;;;;;;;;14.00;64.50;;;;;;6189170;23;20083;-78
2023/08/19 10:22:54;;;;;;;2.90;1.40;;;13.90;64.70;;;;;;6216223;23;20282;-79
2023/08/19 10:25:21;;;;;;;1.88;1.60;;;13.90;64.70;;;;;;6191842;23;20004;-76
2023/08/19 10:27:49;;;;;;;2.63;1.70;;;13.90;64.50;;;;;;6215843;23;20075;-77
2023/08/19 10:30:28;;;;;;;2.22;1.73;;;13.90;64.60;;;;;;6191076;23;20004;-76
2023/08/19 10:32:55;;;;;;;5.43;1.70;;;13.90;64.70;;;;;;6242153;23;20431;-76
2023/08/19 10:35:22;;;;;;;2.65;1.80;;;13.80;64.70;;;;;;6215514;23;20393;-81
2023/08/19 10:37:49;;;;;;;3.08;1.63;;;13.80;64.80;;;;;;6213991;23;20008;-78
2023/08/19 10:40:25;;;;;;;2.13;1.60;;;13.80;64.90;;;;;;6242630;23;20055;-79
2023/08/19 10:42:59;;;;;;;4.88;1.67;;;13.80;64.90;;;;;;6214925;23;20095;-77
2023/08/19 17:06:27;;;;;;;2.92;1.30;;;12.60;74.00;;;;;;6273923;22;20020;-75
2023/08/19 17:08:54;;;;;;;1.88;1.20;;;12.60;74.10;;;;;;6275786;22;20054;-75
2023/08/19 17:11:22;;;;;;;1.08;0.95;;;12.60;74.00;;;;;;6274173;22;20427;-75
2023/08/19 17:13:49;;;;;;;2.00;1.35;;;12.60;74.30;;;;;;6273992;22;20083;-75
2023/08/19 17:16:16;;;;;;;1.88;1.23;;;12.50;74.40;;;;;;6273219;22;20015;-75
2023/08/19 17:18:44;;;;;;;2.30;1.40;;;12.50;74.50;;;;;;6273804;22;20644;-75
2023/08/19 17:21:11;;;;;;;1.40;1.20;;;12.50;74.40;;;;;;6274183;22;20000;-75
2023/08/19 17:23:40;;;;;;;1.88;1.30;;;12.40;74.30;;;;;;6274209;22;20007;-75
2023/08/19 17:26:07;;;;;;;1.30;1.10;;;12.40;74.30;;;;;;6274102;22;20000;-75
2023/08/19 17:28:35;;;;;;;1.33;1.02;;;12.40;74.30;;;;;;6275129;22;20405;-75
2023/08/19 17:31:06;;;;;;;2.38;1.33;;;12.40;74.60;;;;;;6274325;22;20046;-75
2023/08/19 17:33:33;;;;;;;3.72;1.17;;;12.30;74.50;;;;;;6276136;22;20473;-75
2023/08/19 17:36:02;;;;;;;1.90;1.20;;;12.40;74.30;;;;;;6251015;22;20518;-75
2023/08/19 17:38:30;;;;;;;1.60;1.33;;;12.40;74.30;;;;;;6250216;22;20004;-75
2023/08/19 17:40:59;;;;;;;3.50;1.30;;;12.40;74.20;;;;;;6277257;22;20057;-75
2023/08/19 17:43:26;;;;;;;1.65;1.15;;;12.40;73.90;;;;;;6276191;22;20002;-75
2023/08/19 17:45:54;;;;;;;1.92;1.40;;;12.40;74.00;;;;;;6250992;22;20010;-75
2023/08/19 17:48:22;;;;;;;1.83;1.20;;;12.40;74.40;;;;;;6249850;22;20440;-75
2023/08/19 17:50:50;;;;;;;2.08;1.20;;;12.30;74.40;;;;;;6275522;22;20019;-74
2023/08/19 17:53:18;;;;;;;1.73;1.20;;;12.30;74.50;;;;;;6250515;22;20090;-75
2023/08/19 17:55:45;;;;;;;1.20;1.00;;;12.30;74.60;;;;;;6224617;22;20020;-75
2023/08/19 17:58:12;;;;;;;3.47;1.25;;;12.30;74.90;;;;;;6225069;22;20453;-75
2023/08/19 18:00:41;;;;;;;1.33;1.13;;;12.30;75.00;;;;;;6276264;22;19999;-75
2023/08/19 18:03:09;;;;;;;1.60;1.10;;;12.30;74.50;;;;;;6275278;22;19996;-75
2023/08/19 18:05:37;;;;;;;0.80;0.80;;;12.30;74.50;;;;;;6250670;22;20027;-75
2023/08/19 18:08:04;;;;;;;1.45;1.10;;;12.30;74.50;;;;;;6250327;22;20037;-75
2023/08/19 18:10:32;;;;;;;2.15;0.93;;;12.30;74.30;;;;;;6275882;22;20390;-75
2023/08/19 18:12:59;;;;;;;1.90;1.00;;;12.30;74.40;;;;;;6275699;22;19996;-75
2023/08/19 18:15:26;;;;;;;2.10;1.10;;;12.20;74.80;;;;;;6249719;22;20008;-75
2023/08/19 18:17:54;;;;;;;1.92;1.10;;;12.20;74.70;;;;;;6275526;22;20003;-75
2023/08/19 18:20:21;;;;;;;1.58;1.00;;;12.20;74.90;;;;;;6275630;22;19996;-75
2023/08/19 18:22:48;;;;;;;1.65;1.08;;;12.20;74.60;;;;;;6276559;22;20003;-75
2023/08/19 18:25:16;;;;;;;2.47;1.23;;;12.20;74.40;;;;;;6250058;22;20426;-75
2023/08/19 18:27:46;;;;;;;1.10;1.00;;;12.20;73.90;;;;;;6249772;22;20000;-75
2023/08/19 18:30:14;;;;;;;2.80;1.10;;;12.20;74.10;;;;;;6276737;22;20010;-75
2023/08/19 18:32:45;;;;;;;2.58;1.27;;;12.20;73.80;;;;;;6275618;22;20537;-76
2023/08/19 18:35:14;;;;;;;1.42;1.25;;;12.20;74.00;;;;;;6226165;22;20019;-75
2023/08/19 18:37:42;;;;;;;1.50;1.20;;;12.20;74.10;;;;;;6249900;22;20334;-74
2023/08/19 18:40:14;;;;;;;1.70;1.30;;;12.20;74.30;;;;;;6224484;22;20065;-75
2023/08/19 18:42:41;;;;;;;1.83;1.20;;;12.20;74.10;;;;;;6274450;22;20003;-75
2023/08/19 18:45:11;;;;;;;2.97;1.40;;;12.20;74.00;;;;;;6224253;22;20334;-75
2023/08/19 18:48:03;;;;;;;2.22;1.15;;;12.20;73.90;;;;;;6277005;22;20000;-75
2023/08/19 18:50:31;;;;;;;2.65;1.52;;;12.20;73.90;;;;;;6275701;22;19999;-75
2023/08/19 18:52:59;;;;;;;2.17;1.30;;;12.20;74.10;;;;;;6247439;22;20308;-77
2023/08/19 18:55:30;;;;;;;3.40;1.30;;;12.20;74.20;;;;;;6246696;22;20354;-74
2023/08/19 18:57:57;;;;;;;2.53;1.38;;;12.20;74.10;;;;;;6244458;22;20000;-75
2023/08/19 19:00:25;;;;;;;1.10;1.00;;;12.10;74.00;;;;;;6271886;22;20293;-75
2023/08/19 19:02:53;;;;;;;1.40;1.25;;;12.10;73.80;;;;;;6269174;22;20000;-75
2023/08/19 19:05:20;;;;;;;2.70;1.30;;;12.20;74.00;;;;;;6271170;22;20058;-75
2023/08/19 19:07:51;;;;;;;1.60;1.10;;;12.20;73.80;;;;;;6245637;22;20113;-75
2023/08/19 19:10:18;;;;;;;1.67;1.10;;;12.20;73.50;;;;;;6246477;22;20003;-76
2023/08/19 19:12:47;;;;;;;1.90;1.30;;;12.10;73.70;;;;;;6270739;22;20011;-73
2023/08/19 19:15:16;;;;;;;2.65;1.50;;;12.10;73.90;;;;;;6245638;22;20007;-75